createdAt,value
2022-12-13T00:02:27.237Z,0.00
2022-12-13T00:04:58.191Z,0.00
2022-12-13T00:07:28.953Z,0.00
2022-12-13T00:09:59.620Z,0.10
2022-12-13T00:12:30.443Z,0.10
2022-12-13T00:15:01.142Z,0.10
2022-12-13T00:17:33.552Z,0.10
2022-12-13T00:20:05.376Z,0.10
2022-12-13T00:22:36.069Z,0.10
2022-12-13T00:25:08.078Z,0.10
2022-12-13T00:27:38.723Z,0.10
2022-12-13T00:30:11.290Z,0.10
2022-12-13T00:32:41.941Z,0.00
2022-12-13T00:35:12.972Z,0.00
2022-12-13T00:37:43.931Z,0.00
2022-12-13T00:40:16.415Z,0.00
2022-12-13T00:42:47.159Z,0.00
2022-12-13T00:45:18.689Z,0.10
2022-12-13T00:47:49.574Z,0.10
2022-12-13T00:50:20.486Z,0.00
2022-12-13T00:52:51.161Z,0.00
2022-12-13T00:55:21.973Z,0.00
2022-12-13T00:57:52.750Z,0.10
2022-12-13T01:00:23.614Z,0.00
2022-12-13T01:02:55.484Z,0.00
2022-12-13T01:05:47.519Z,0.00
2022-12-13T01:07:58.813Z,0.00
2022-12-13T01:10:29.531Z,-0.10
2022-12-13T01:13:00.463Z,0.00
2022-12-13T01:15:31.227Z,-0.10
2022-12-13T01:18:01.840Z,0.00
2022-12-13T01:20:32.636Z,0.00
2022-12-13T01:23:03.386Z,0.00
2022-12-13T01:25:34.593Z,0.00
2022-12-13T01:28:05.526Z,0.00
2022-12-13T01:30:36.209Z,-0.10
2022-12-13T01:33:13.928Z,-0.10
2022-12-13T01:35:39.684Z,-0.10
2022-12-13T01:38:15.861Z,-0.10
2022-12-13T01:40:47.699Z,-0.10
2022-12-13T01:43:19.158Z,-0.10
2022-12-13T01:45:50.220Z,-0.10
2022-12-13T01:48:24.282Z,0.00
2022-12-13T01:50:57.539Z,0.00
2022-12-13T01:53:31.145Z,0.10
2022-12-13T01:58:43.536Z,0.10
2022-12-13T02:01:14.232Z,0.10
2022-12-13T02:03:45.966Z,0.10
2022-12-13T02:08:58.201Z,0.10
2022-12-13T02:11:29.645Z,0.10
2022-12-13T02:14:00.415Z,0.20
2022-12-13T02:16:38.170Z,0.20
2022-12-13T02:22:13.095Z,0.30
2022-12-13T02:25:04.335Z,0.40
2022-12-13T02:28:00.714Z,0.40
2022-12-13T02:30:30.896Z,0.50
2022-12-13T02:33:24.019Z,0.50
2022-12-13T02:36:00.385Z,0.50
2022-12-13T02:38:34.534Z,0.50
2022-12-13T02:41:10.085Z,0.40
2022-12-13T02:43:45.456Z,0.40
2022-12-13T02:46:21.070Z,0.50
2022-12-13T02:48:54.365Z,0.50
2022-12-13T02:51:26.594Z,0.50
2022-12-13T02:53:57.291Z,0.50
2022-12-13T02:56:27.936Z,0.60
2022-12-13T02:59:00.072Z,0.60
2022-12-13T03:01:44.776Z,0.60
2022-12-13T03:04:26.053Z,0.60
2022-12-13T03:06:56.696Z,0.60
2022-12-13T03:09:36.034Z,0.60
2022-12-13T03:12:32.210Z,0.60
2022-12-13T03:15:05.982Z,0.70
2022-12-13T03:17:39.945Z,0.60
2022-12-13T03:20:22.668Z,0.60
2022-12-13T03:22:45.287Z,0.70
2022-12-13T03:25:31.895Z,0.80
2022-12-13T03:27:49.584Z,0.80
2022-12-13T03:30:20.269Z,0.70
2022-12-13T03:32:50.987Z,0.70
2022-12-13T03:35:22.598Z,0.70
2022-12-13T03:37:54.273Z,0.60
2022-12-13T03:40:25.201Z,0.70
2022-12-13T03:42:56.075Z,0.80
2022-12-13T03:45:26.835Z,0.80
2022-12-13T03:47:57.524Z,0.80
2022-12-13T03:50:28.189Z,0.80
2022-12-13T03:53:02.329Z,0.90
2022-12-13T03:55:33.118Z,0.90
2022-12-13T03:58:07.905Z,0.90
2022-12-13T04:00:36.159Z,0.90
2022-12-13T04:03:07.293Z,0.90
2022-12-13T04:05:38.238Z,0.90
2022-12-13T04:08:21.745Z,0.80
2022-12-13T04:10:41.896Z,0.80
2022-12-13T04:13:32.209Z,0.80
2022-12-13T04:16:03.990Z,0.80
2022-12-13T04:18:34.641Z,0.80
2022-12-13T04:21:05.463Z,0.80
2022-12-13T04:23:36.215Z,0.80
2022-12-13T04:26:07.202Z,0.90
2022-12-13T04:28:37.945Z,0.90
2022-12-13T04:31:08.938Z,0.90
2022-12-13T04:33:39.917Z,0.90
2022-12-13T04:36:11.759Z,1.00
2022-12-13T04:38:42.468Z,1.00
2022-12-13T04:41:16.900Z,0.90
2022-12-13T04:43:49.203Z,0.90
2022-12-13T04:46:20.199Z,1.00
2022-12-13T04:48:50.933Z,1.00
2022-12-13T04:51:21.674Z,1.00
2022-12-13T04:53:52.936Z,1.00
2022-12-13T04:56:23.731Z,1.00
2022-12-13T04:58:54.839Z,1.00
2022-12-13T05:01:25.531Z,1.00
2022-12-13T05:03:56.250Z,1.00
2022-12-13T05:06:27.899Z,1.00
2022-12-13T05:09:00.957Z,1.00
2022-12-13T05:11:35.514Z,1.00
2022-12-13T05:14:03.695Z,1.00
2022-12-13T05:16:34.703Z,1.10
2022-12-13T05:19:05.424Z,1.10
2022-12-13T05:21:36.049Z,1.10
2022-12-13T05:24:08.163Z,1.00
2022-12-13T05:26:39.268Z,1.00
2022-12-13T05:31:47.340Z,1.00
2022-12-13T05:34:18.048Z,1.00
2022-12-13T05:36:48.799Z,1.10
2022-12-13T05:39:27.842Z,1.00
2022-12-13T05:41:52.213Z,1.10
2022-12-13T05:44:22.906Z,1.00
2022-12-13T05:46:53.727Z,1.00
2022-12-13T05:49:24.417Z,1.00
2022-12-13T05:51:55.095Z,1.00
2022-12-13T05:54:25.968Z,1.10
2022-12-13T05:56:56.665Z,1.00
2022-12-13T05:59:27.311Z,1.00
2022-12-13T06:01:58.063Z,1.00
2022-12-13T06:04:29.121Z,1.00
2022-12-13T06:06:59.878Z,1.00
2022-12-13T06:09:30.953Z,1.00
2022-12-13T06:12:01.624Z,1.00
2022-12-13T06:14:32.330Z,1.00
2022-12-13T06:17:03.251Z,1.00
2022-12-13T06:19:34.329Z,1.00
2022-12-13T06:22:05.202Z,1.10
2022-12-13T06:24:35.814Z,1.10
2022-12-13T06:27:06.856Z,1.10
2022-12-13T06:29:37.873Z,1.10
2022-12-13T06:32:09.163Z,1.00
2022-12-13T06:34:42.048Z,1.00
2022-12-13T06:37:15.418Z,0.90
2022-12-13T06:39:46.718Z,0.90
2022-12-13T06:42:22.306Z,0.90
2022-12-13T06:44:55.847Z,0.90
2022-12-13T06:47:31.465Z,0.90
2022-12-13T06:50:04.890Z,1.00
2022-12-13T06:52:33.827Z,1.00
2022-12-13T06:55:05.454Z,1.00
2022-12-13T06:57:37.356Z,1.00
2022-12-13T07:00:12.787Z,1.10
2022-12-13T07:02:43.552Z,1.10
2022-12-13T07:05:14.471Z,1.20
2022-12-13T07:07:45.147Z,1.10
2022-12-13T07:10:21.908Z,1.10
2022-12-13T07:12:48.159Z,1.10
2022-12-13T07:15:19.172Z,1.10
2022-12-13T07:17:53.056Z,1.10
2022-12-13T07:20:23.657Z,1.10
2022-12-13T07:22:58.904Z,1.10
2022-12-13T07:25:29.661Z,1.10
2022-12-13T07:28:03.328Z,1.10
2022-12-13T07:30:40.528Z,1.10
2022-12-13T07:33:09.354Z,1.00
2022-12-13T07:35:40.511Z,1.10
2022-12-13T07:38:12.602Z,1.10
2022-12-13T07:40:43.609Z,1.10
2022-12-13T07:43:16.376Z,1.10
2022-12-13T07:45:47.555Z,1.10
2022-12-13T07:48:18.359Z,1.00
2022-12-13T07:50:54.357Z,1.10
2022-12-13T07:53:22.158Z,1.10
2022-12-13T07:55:53.239Z,1.10
2022-12-13T07:58:24.036Z,1.20
2022-12-13T08:00:54.842Z,1.20
2022-12-13T08:03:26.589Z,1.20
2022-12-13T08:06:05.186Z,1.20
2022-12-13T08:08:36.496Z,1.30
2022-12-13T08:11:08.896Z,1.20
2022-12-13T08:13:40.844Z,1.20
2022-12-13T08:16:26.574Z,1.30
2022-12-13T08:18:48.249Z,1.30
2022-12-13T08:21:51.726Z,1.30
2022-12-13T08:23:51.404Z,1.30
2022-12-13T08:26:22.177Z,1.30
2022-12-13T08:28:52.861Z,1.40
2022-12-13T08:31:23.638Z,1.40
2022-12-13T08:33:54.735Z,1.40
2022-12-13T08:36:25.419Z,1.40
2022-12-13T08:38:58.113Z,1.40
2022-12-13T08:41:28.810Z,1.40
2022-12-13T08:43:59.531Z,1.40
2022-12-13T08:46:30.427Z,1.40
2022-12-13T08:49:01.377Z,1.30
2022-12-13T08:51:35.637Z,1.30
2022-12-13T08:54:10.726Z,1.30
2022-12-13T08:56:37.153Z,1.40
2022-12-13T08:59:07.936Z,1.40
2022-12-13T09:01:38.724Z,1.50
2022-12-13T09:04:09.475Z,1.60
2022-12-13T09:06:40.240Z,1.60
2022-12-13T09:09:11.073Z,1.60
2022-12-13T09:11:42.875Z,1.70
2022-12-13T09:14:14.050Z,1.80
2022-12-13T09:16:50.521Z,1.80
2022-12-13T09:19:26.184Z,1.80
2022-12-13T09:21:49.867Z,1.80
2022-12-13T09:24:24.358Z,1.80
2022-12-13T09:26:57.365Z,1.80
2022-12-13T09:29:26.057Z,1.90
2022-12-13T09:31:56.963Z,1.90
2022-12-13T09:34:27.828Z,1.90
2022-12-13T09:37:01.556Z,1.90
2022-12-13T09:39:32.313Z,1.90
2022-12-13T09:42:10.645Z,1.90
2022-12-13T09:44:44.175Z,1.90
2022-12-13T09:47:16.091Z,2.00
2022-12-13T09:49:52.184Z,2.00
2022-12-13T09:52:23.103Z,2.00
2022-12-13T09:54:57.125Z,2.00
2022-12-13T09:57:33.926Z,2.00
2022-12-13T10:00:06.035Z,2.00
2022-12-13T10:02:39.999Z,2.00
2022-12-13T10:05:34.054Z,2.00
2022-12-13T10:08:01.781Z,2.00
2022-12-13T10:10:32.453Z,1.80
2022-12-13T10:13:07.540Z,1.80
2022-12-13T10:15:40.770Z,1.90
2022-12-13T10:18:15.955Z,2.00
2022-12-13T10:20:48.362Z,2.00
2022-12-13T10:23:53.064Z,2.10
2022-12-13T10:26:02.819Z,2.20
2022-12-13T10:28:33.684Z,2.30
2022-12-13T10:31:04.719Z,2.30
2022-12-13T10:33:38.724Z,2.30
2022-12-13T10:36:22.201Z,2.20
2022-12-13T10:38:51.506Z,2.10
2022-12-13T10:41:31.774Z,2.00
2022-12-13T10:44:13.220Z,1.90
2022-12-13T10:46:46.859Z,2.00
2022-12-13T10:49:21.426Z,2.00
2022-12-13T10:51:54.114Z,2.10
2022-12-13T10:54:29.855Z,2.10
2022-12-13T10:57:02.855Z,2.20
2022-12-13T10:59:38.236Z,2.30
2022-12-13T11:05:11.105Z,2.40
2022-12-13T11:07:40.271Z,2.20
2022-12-13T11:10:27.334Z,2.20
2022-12-13T11:13:01.683Z,2.20
2022-12-13T11:15:34.715Z,2.30
2022-12-13T11:18:08.609Z,2.40
2022-12-13T11:20:41.632Z,2.20
2022-12-13T11:23:18.293Z,2.20
2022-12-13T11:25:49.465Z,2.30
2022-12-13T11:28:28.011Z,2.40
2022-12-13T11:33:49.951Z,2.50
2022-12-13T11:36:26.816Z,2.50
2022-12-13T11:39:05.383Z,2.50
2022-12-13T11:41:39.237Z,2.60
2022-12-13T11:44:14.867Z,2.60
2022-12-13T11:46:50.060Z,2.70
2022-12-13T11:49:23.116Z,2.70
2022-12-13T11:51:57.352Z,2.60
2022-12-13T11:54:31.984Z,2.60
2022-12-13T11:57:07.330Z,2.60
2022-12-13T11:59:42.735Z,2.70
2022-12-13T12:02:18.700Z,2.80
2022-12-13T12:04:58.314Z,2.90
2022-12-13T12:07:33.310Z,2.90
2022-12-13T12:10:22.008Z,2.90
2022-12-13T12:12:55.988Z,2.90
2022-12-13T12:15:30.206Z,2.90
2022-12-13T12:18:00.910Z,2.90
2022-12-13T12:20:36.834Z,2.80
2022-12-13T12:23:29.119Z,2.80
2022-12-13T12:26:03.574Z,2.70
2022-12-13T12:28:44.118Z,2.70
2022-12-13T12:33:55.330Z,2.60
2022-12-13T12:36:37.220Z,2.70
2022-12-13T12:45:55.879Z,2.70
2022-12-13T12:50:56.179Z,2.80
2022-12-13T12:53:38.685Z,2.80
2022-12-13T12:56:17.984Z,2.80
2022-12-13T12:58:51.753Z,2.80
2022-12-13T13:01:43.545Z,2.80
2022-12-13T13:04:09.495Z,2.80
2022-12-13T13:09:25.230Z,2.80
2022-12-13T13:11:57.485Z,2.80
2022-12-13T13:14:35.189Z,2.90
2022-12-13T13:17:38.020Z,2.90
2022-12-13T13:23:39.100Z,2.90
2022-12-13T13:26:07.515Z,2.80
2022-12-13T13:28:19.653Z,2.80
2022-12-13T13:31:08.275Z,2.80
2022-12-13T13:33:57.472Z,2.80
2022-12-13T13:39:57.269Z,2.80
2022-12-13T13:42:29.778Z,2.80
2022-12-13T13:45:23.524Z,2.80
2022-12-13T13:48:19.289Z,2.70
2022-12-13T13:51:29.451Z,2.70
2022-12-13T13:54:43.040Z,2.60
2022-12-13T14:00:25.423Z,2.60
2022-12-13T14:03:33.737Z,2.60
2022-12-13T14:06:38.426Z,2.60
2022-12-13T14:09:38.344Z,2.60
2022-12-13T14:12:47.987Z,2.60
2022-12-13T14:15:51.236Z,2.70
2022-12-13T14:19:12.825Z,2.70
2022-12-13T14:22:07.734Z,2.80
2022-12-13T14:24:44.013Z,2.80
2022-12-13T14:27:21.013Z,2.70
2022-12-13T14:30:26.870Z,2.80
2022-12-13T14:32:50.628Z,2.80
2022-12-13T14:35:27.277Z,2.80
2022-12-13T14:38:05.968Z,2.80
2022-12-13T14:40:39.401Z,2.70
2022-12-13T14:43:25.445Z,2.70
2022-12-13T14:45:58.967Z,2.80
2022-12-13T14:48:32.448Z,2.80
2022-12-13T14:51:03.531Z,2.80
2022-12-13T14:56:28.802Z,2.80
2022-12-13T14:58:56.222Z,2.70
2022-12-13T15:01:33.169Z,2.70
2022-12-13T15:04:22.970Z,2.60
2022-12-13T15:06:58.780Z,2.70
2022-12-13T15:09:30.366Z,2.60
2022-12-13T15:12:25.451Z,2.50
2022-12-13T15:14:59.729Z,2.60
2022-12-13T15:17:34.852Z,2.60
2022-12-13T15:23:07.148Z,2.60
2022-12-13T15:25:38.893Z,2.50
2022-12-13T15:28:18.205Z,2.50
2022-12-13T15:30:46.363Z,2.60
2022-12-13T15:33:28.920Z,2.60
2022-12-13T15:36:10.847Z,2.60
2022-12-13T15:38:44.427Z,2.60
2022-12-13T15:41:21.558Z,2.50
2022-12-13T15:43:54.980Z,2.60
2022-12-13T15:46:30.852Z,2.60
2022-12-13T15:49:03.420Z,2.60
2022-12-13T15:51:36.902Z,2.60
2022-12-13T15:54:18.581Z,2.60
2022-12-13T15:57:04.747Z,2.60
2022-12-13T15:59:37.778Z,2.60
2022-12-13T16:02:17.309Z,2.50
2022-12-13T16:04:48.563Z,2.50
2022-12-13T16:07:26.407Z,2.60
2022-12-13T16:09:59.123Z,2.60
2022-12-13T16:12:32.715Z,2.60
2022-12-13T16:15:28.723Z,2.50
2022-12-13T16:17:52.528Z,2.60
2022-12-13T16:20:24.667Z,2.60
2022-12-13T16:22:59.964Z,2.60
2022-12-13T16:25:27.990Z,2.60
2022-12-13T16:27:59.201Z,2.50
2022-12-13T16:30:42.868Z,2.50
2022-12-13T16:33:27.436Z,2.60
2022-12-13T16:35:46.928Z,2.50
2022-12-13T16:38:26.834Z,2.50
2022-12-13T16:40:54.400Z,2.50
2022-12-13T16:43:33.326Z,2.50
2022-12-13T16:46:00.581Z,2.50
2022-12-13T16:48:33.001Z,2.50
2022-12-13T16:51:05.805Z,2.50
2022-12-13T16:53:36.408Z,2.50
2022-12-13T16:56:10.656Z,2.60
2022-12-13T16:58:46.095Z,2.50
2022-12-13T17:01:14.881Z,2.20
2022-12-13T17:03:45.639Z,2.50
2022-12-13T17:06:18.889Z,2.60
2022-12-13T17:08:49.611Z,2.60
2022-12-13T17:11:20.448Z,2.60
2022-12-13T17:13:52.022Z,2.60
2022-12-13T17:16:24.345Z,2.60
2022-12-13T17:18:56.593Z,2.60
2022-12-13T17:21:28.886Z,2.60
2022-12-13T17:24:00.711Z,2.60
2022-12-13T17:26:33.301Z,2.60
2022-12-13T17:29:03.998Z,2.60
2022-12-13T17:31:36.015Z,2.60
2022-12-13T17:34:07.160Z,2.50
2022-12-13T17:36:37.907Z,2.50
2022-12-13T17:39:08.584Z,2.40
2022-12-13T17:41:39.521Z,2.50
2022-12-13T17:44:10.468Z,2.50
2022-12-13T17:46:41.347Z,2.50
2022-12-13T17:49:14.706Z,2.60
2022-12-13T17:51:51.259Z,2.60
2022-12-13T17:54:17.802Z,2.60
2022-12-13T17:56:48.823Z,2.50
2022-12-13T17:59:20.210Z,2.50
2022-12-13T18:01:51.315Z,2.50
2022-12-13T18:04:22.623Z,2.50
2022-12-13T18:06:53.870Z,2.50
2022-12-13T18:09:24.764Z,2.50
2022-12-13T18:11:55.438Z,2.50
2022-12-13T18:14:26.448Z,2.50
2022-12-13T18:16:57.183Z,2.60
2022-12-13T18:19:29.411Z,2.60
2022-12-13T18:22:01.509Z,2.60
2022-12-13T18:24:32.604Z,2.60
2022-12-13T18:27:03.230Z,2.60
2022-12-13T18:29:34.091Z,2.60
2022-12-13T18:32:04.926Z,2.50
2022-12-13T18:34:35.713Z,2.60
2022-12-13T18:37:06.380Z,2.60
2022-12-13T18:39:37.070Z,2.60
2022-12-13T18:42:08.075Z,2.60
2022-12-13T18:44:38.711Z,2.60
2022-12-13T18:47:10.412Z,2.60
2022-12-13T18:49:41.334Z,2.60
2022-12-13T18:52:13.615Z,2.50
2022-12-13T18:54:54.261Z,2.60
2022-12-13T18:57:20.561Z,2.60
2022-12-13T18:59:54.301Z,2.60
2022-12-13T19:05:03.140Z,2.60
2022-12-13T19:07:33.804Z,2.60
2022-12-13T19:10:05.226Z,2.70
2022-12-13T19:12:36.325Z,2.70
2022-12-13T19:15:09.095Z,2.60
2022-12-13T19:17:39.728Z,2.70
2022-12-13T19:20:13.044Z,2.70
2022-12-13T19:22:44.382Z,2.70
2022-12-13T19:25:16.681Z,2.70
2022-12-13T19:27:48.944Z,2.70
2022-12-13T19:30:21.387Z,2.70
2022-12-13T19:32:57.323Z,2.70
2022-12-13T19:35:28.062Z,2.80
2022-12-13T19:37:58.723Z,2.70
2022-12-13T19:40:48.022Z,2.80
2022-12-13T19:43:20.310Z,2.80
2022-12-13T19:45:51.200Z,2.80
2022-12-13T19:48:21.842Z,2.80
2022-12-13T19:50:52.584Z,2.80
2022-12-13T19:53:23.350Z,2.80
2022-12-13T19:55:54.363Z,2.90
2022-12-13T19:58:25.086Z,2.80
2022-12-13T20:00:58.212Z,2.90
2022-12-13T20:03:29.371Z,2.90
2022-12-13T20:06:01.230Z,2.80
2022-12-13T20:08:32.333Z,2.80
2022-12-13T20:11:05.754Z,2.80
2022-12-13T20:13:36.542Z,2.80
2022-12-13T20:16:08.476Z,2.70
2022-12-13T20:18:39.851Z,2.70
2022-12-13T20:21:14.287Z,2.70
2022-12-13T20:23:48.897Z,2.70
2022-12-13T20:26:21.690Z,2.70
2022-12-13T20:28:52.676Z,2.70
2022-12-13T20:31:25.219Z,2.70
2022-12-13T20:33:58.260Z,2.70
2022-12-13T20:36:31.565Z,2.70
2022-12-13T20:39:04.895Z,2.70
2022-12-13T20:41:37.780Z,2.70
2022-12-13T20:44:11.011Z,2.70
2022-12-13T20:49:20.563Z,2.70
2022-12-13T20:51:51.275Z,2.70
2022-12-13T20:54:22.030Z,2.80
2022-12-13T20:56:52.763Z,2.80
2022-12-13T20:59:23.867Z,2.70
2022-12-13T21:01:54.574Z,2.70
2022-12-13T21:04:25.266Z,2.70
2022-12-13T21:09:42.433Z,2.70
2022-12-13T21:12:13.103Z,2.70
2022-12-13T21:14:43.789Z,2.70
2022-12-13T21:17:14.566Z,2.70
2022-12-13T21:19:48.844Z,2.70
2022-12-13T21:22:19.458Z,2.70
2022-12-13T21:24:50.314Z,2.80
2022-12-13T21:27:21.056Z,2.70
2022-12-13T21:29:51.707Z,2.70
2022-12-13T21:32:22.442Z,2.60
2022-12-13T21:34:53.231Z,2.70
2022-12-13T21:37:24.002Z,2.70
2022-12-13T21:39:55.356Z,2.70
2022-12-13T21:42:36.570Z,2.70
2022-12-13T21:45:25.858Z,2.70
2022-12-13T21:48:05.535Z,2.70
2022-12-13T21:50:37.094Z,2.70
2022-12-13T21:53:14.516Z,2.80
2022-12-13T21:55:51.449Z,2.80
2022-12-13T21:58:50.155Z,2.80
2022-12-13T22:04:05.429Z,2.80
2022-12-13T22:06:35.220Z,2.90
2022-12-13T22:09:06.254Z,2.90
2022-12-13T22:11:38.081Z,2.90
2022-12-13T22:16:59.908Z,3.00
2022-12-13T22:19:30.807Z,3.00
2022-12-13T22:22:01.551Z,3.00
2022-12-13T22:24:32.326Z,3.00
2022-12-13T22:27:03.624Z,3.00
2022-12-13T22:29:34.302Z,3.00
2022-12-13T22:32:05.094Z,3.00
2022-12-13T22:34:35.899Z,3.00
2022-12-13T22:37:06.578Z,3.10
2022-12-13T22:39:37.308Z,3.00
2022-12-13T22:42:08.128Z,3.00
2022-12-13T22:44:39.073Z,3.10
2022-12-13T22:47:09.646Z,3.00
2022-12-13T22:49:40.301Z,3.00
2022-12-13T22:52:11.003Z,3.00
2022-12-13T22:54:41.661Z,3.10
2022-12-13T22:57:12.304Z,3.10
2022-12-13T22:59:43.102Z,3.00
2022-12-13T23:02:13.982Z,3.00
2022-12-13T23:04:45.116Z,3.00
2022-12-13T23:07:15.707Z,3.00
2022-12-13T23:09:46.481Z,3.10
2022-12-13T23:12:35.870Z,3.10
2022-12-13T23:15:07.878Z,3.00
2022-12-13T23:17:38.560Z,3.00
2022-12-13T23:20:13.454Z,3.00
2022-12-13T23:22:44.130Z,3.00
2022-12-13T23:25:14.967Z,3.00
2022-12-13T23:27:45.745Z,3.00
2022-12-13T23:30:16.962Z,3.00
2022-12-13T23:32:47.635Z,3.00
2022-12-13T23:35:18.501Z,3.10
2022-12-13T23:37:49.261Z,3.10
2022-12-13T23:40:20.077Z,3.10
2022-12-13T23:42:50.689Z,3.10
2022-12-13T23:45:22.069Z,3.00
2022-12-13T23:47:52.687Z,2.90
2022-12-13T23:50:23.290Z,2.90
2022-12-13T23:52:53.910Z,2.80
2022-12-13T23:55:24.534Z,2.90
2022-12-13T23:57:55.124Z,2.90
